Cardsville, Mississippi
Current Conditions -  °F | °C
As of 5:20 PM on Monday 22 Dec 2014 (Local Time) from KTUP Reporting Station
Haze Haze  
Wind Chill: 54°   Ceiling: 300
Heat Index: 54°   Visibility: 2.5mi
Dew Point: 52°   Wind: 9mph
Humidity: 93%   Direction: 180°S
Pressure: 29.68"   Gusts: NA
Location:  34.0719°N, 88.6162°W
Report Text: KTUP 222320Z 18008KT 2 1/2SM BR OVC003 12/11 A2968 RMK AO2 RAE2258 P0000 T01220111
Loading
Personal Weather Stations






























Interactive Weather Map New forecast layout! Learn more

10-Day Weather Forecast

Advertisements
Track Severe Weather on mobile